Time;durP1;ratioP1;P1;durP2;ratioP2;P2;SDS_P1;SDS_P2;PMS_P1;PMS_P2;Temp;Humidity;BMP_temperature;BMP_pressure;BME280_temperature;BME280_humidity;BME280_pressure;Samples;Min_cycle;Max_cycle;Signal;HPM_P1;HPM_P2
2022/04/21 00:00:41;;;;;;;28.27;18.70;;;14.50;99.90;;;;;;5122594;27;20496;-76
2022/04/21 00:03:08;;;;;;;30.25;21.00;;;14.40;99.90;;;;;;5123948;27;20114;-76
2022/04/21 00:05:34;;;;;;;31.33;20.42;;;14.40;99.90;;;;;;5120707;27;20087;-76
2022/04/21 00:08:01;;;;;;;29.80;20.77;;;14.40;99.90;;;;;;5129891;27;20497;-76
2022/04/21 00:10:27;;;;;;;28.05;19.02;;;14.40;99.90;;;;;;5131628;27;20035;-76
2022/04/21 00:12:54;;;;;;;32.28;20.55;;;14.40;99.90;;;;;;5131946;27;20094;-76
2022/04/21 00:15:21;;;;;;;32.17;20.70;;;14.40;99.90;;;;;;5132028;27;20058;-75
2022/04/21 00:17:46;;;;;;;30.70;20.92;;;14.30;99.90;;;;;;5131986;27;20019;-77
2022/04/21 00:20:13;;;;;;;28.05;19.73;;;14.30;99.90;;;;;;5131436;28;20066;-75
2022/04/21 00:25:24;;;;;;;26.50;18.27;;;14.20;99.90;;;;;;5131683;28;20100;-76
2022/04/21 00:27:50;;;;;;;31.75;20.70;;;14.30;99.90;;;;;;5131652;28;20404;-76
2022/04/21 00:30:17;;;;;;;27.83;19.92;;;14.30;99.90;;;;;;5132423;27;20027;-76
2022/04/21 00:32:46;;;;;;;34.55;21.60;;;14.30;99.90;;;;;;5131525;28;20039;-77
2022/04/21 00:35:17;;;;;;;26.60;21.17;;;14.30;99.90;;;;;;5131389;28;20043;-76
2022/04/21 00:37:47;;;;;;;30.15;21.58;;;14.40;99.90;;;;;;5128703;28;20053;-76
2022/04/21 00:40:17;;;;;;;29.05;20.95;;;14.30;99.90;;;;;;5118946;28;20084;-76
2022/04/21 00:42:43;;;;;;;31.27;20.52;;;14.30;99.90;;;;;;5131235;27;20084;-76
2022/04/21 00:45:09;;;;;;;35.08;22.00;;;14.30;99.90;;;;;;5132697;27;20109;-76
2022/04/21 00:47:40;;;;;;;30.73;21.75;;;14.30;99.90;;;;;;5131405;28;20028;-76
2022/04/21 00:50:27;;;;;;;29.75;21.23;;;14.30;99.90;;;;;;5131279;28;20583;-76
2022/04/21 00:52:54;;;;;;;28.23;22.00;;;14.30;99.90;;;;;;5131207;28;20077;-76
2022/04/21 00:55:21;;;;;;;31.33;23.40;;;14.30;99.90;;;;;;5131374;28;20027;-76
2022/04/21 00:57:48;;;;;;;37.42;24.77;;;14.30;99.90;;;;;;5131182;27;20407;-76
2022/04/21 01:00:17;;;;;;;31.58;24.73;;;14.30;99.90;;;;;;5132485;27;20052;-76
2022/04/21 01:02:46;;;;;;;30.80;22.73;;;14.30;99.90;;;;;;5131340;28;20058;-76
2022/04/21 01:05:33;;;;;;;32.63;21.23;;;14.30;99.90;;;;;;5131366;28;20069;-76
2022/04/21 01:08:03;;;;;;;30.92;21.35;;;14.30;99.90;;;;;;5132533;27;20114;-76
2022/04/21 01:10:31;;;;;;;29.65;21.42;;;14.20;99.90;;;;;;5134809;27;20110;-76
2022/04/21 01:12:59;;;;;;;34.10;20.70;;;14.20;99.90;;;;;;5135064;27;20023;-76
2022/04/21 01:15:25;;;;;;;33.65;20.80;;;14.30;99.90;;;;;;5135407;27;20027;-76
2022/04/21 01:17:53;;;;;;;31.23;20.92;;;14.30;99.90;;;;;;5122749;27;20020;-77
2022/04/21 01:20:20;;;;;;;26.98;21.17;;;14.20;99.90;;;;;;5131293;27;20051;-76
2022/04/21 01:22:46;;;;;;;25.63;20.88;;;14.30;99.90;;;;;;5134869;27;20023;-76
2022/04/21 01:25:12;;;;;;;34.72;22.50;;;14.30;99.90;;;;;;5135069;27;20031;-76
2022/04/21 01:27:39;;;;;;;26.20;20.80;;;14.20;99.90;;;;;;5134685;27;20129;-76
2022/04/21 01:30:07;;;;;;;31.15;21.92;;;14.20;99.90;;;;;;5135477;27;20035;-77
2022/04/21 01:32:35;;;;;;;30.35;22.33;;;14.20;99.90;;;;;;5135165;27;20410;-77
2022/04/21 01:35:06;;;;;;;31.83;24.23;;;14.20;99.90;;;;;;5134690;27;20092;-76
2022/04/21 01:43:01;;;;;;;28.38;22.42;;;14.20;99.90;;;;;;5120449;27;20038;-77
2022/04/21 01:45:27;;;;;;;29.63;22.50;;;14.20;99.90;;;;;;5134675;27;20024;-77
2022/04/21 01:47:54;;;;;;;28.85;19.88;;;14.20;99.90;;;;;;5135066;27;20031;-76
2022/04/21 01:50:19;;;;;;;33.75;20.02;;;14.20;99.90;;;;;;5134237;27;20039;-76
2022/04/21 01:52:45;;;;;;;24.92;18.05;;;14.20;99.90;;;;;;5134795;27;20023;-76
2022/04/21 01:55:11;;;;;;;23.63;16.65;;;14.20;99.90;;;;;;5134210;27;20054;-76
2022/04/21 01:57:37;;;;;;;24.90;18.02;;;14.20;99.90;;;;;;5117875;27;20020;-76
2022/04/21 02:00:04;;;;;;;26.05;17.55;;;14.20;99.90;;;;;;5135178;27;20019;-76
2022/04/21 02:02:30;;;;;;;25.35;17.98;;;14.10;99.90;;;;;;5134098;27;20505;-77
2022/04/21 02:04:57;;;;;;;26.02;18.10;;;14.20;99.90;;;;;;5134646;27;20031;-76
2022/04/21 02:07:24;;;;;;;25.70;17.13;;;14.20;99.90;;;;;;5134206;27;20023;-77
2022/04/21 02:09:50;;;;;;;26.98;17.25;;;14.20;99.90;;;;;;5133775;27;20027;-75
2022/04/21 02:12:16;;;;;;;29.17;17.95;;;14.10;99.90;;;;;;5130362;27;20370;-75
2022/04/21 02:14:42;;;;;;;28.75;18.77;;;14.20;99.90;;;;;;5134004;27;20106;-75
2022/04/21 02:17:08;;;;;;;32.80;18.85;;;14.20;99.90;;;;;;5133739;27;20106;-75
2022/04/21 02:19:34;;;;;;;25.02;17.90;;;14.10;99.90;;;;;;5129321;27;20462;-75
2022/04/21 02:22:00;;;;;;;29.15;19.45;;;14.10;99.90;;;;;;5134021;27;20068;-75
2022/04/21 02:24:25;;;;;;;27.00;20.35;;;14.20;99.90;;;;;;5133563;27;20030;-75
2022/04/21 02:26:51;;;;;;;29.55;20.45;;;14.10;99.90;;;;;;5134157;27;20027;-75
2022/04/21 02:29:17;;;;;;;25.92;19.80;;;14.10;99.90;;;;;;5134185;27;20474;-75
2022/04/21 02:31:42;;;;;;;29.52;22.10;;;14.10;99.90;;;;;;5129180;27;20035;-75
2022/04/21 02:34:08;;;;;;;29.65;23.33;;;14.10;99.90;;;;;;5133699;27;20047;-75
2022/04/21 02:36:34;;;;;;;37.10;24.15;;;14.10;99.90;;;;;;5117496;27;20080;-75
2022/04/21 02:38:59;;;;;;;27.13;22.08;;;14.20;99.90;;;;;;5117804;27;20026;-75
2022/04/21 02:41:26;;;;;;;28.52;20.58;;;14.10;99.90;;;;;;5130715;27;20394;-75
2022/04/21 02:43:52;;;;;;;32.53;21.42;;;14.10;99.90;;;;;;5133488;27;20034;-75
2022/04/21 02:46:18;;;;;;;26.23;19.38;;;14.00;99.90;;;;;;5133917;27;20027;-75
2022/04/21 02:48:47;;;;;;;29.45;20.77;;;14.00;99.90;;;;;;5133189;27;20016;-75
2022/04/21 02:51:16;;;;;;;28.60;19.60;;;14.00;99.90;;;;;;5133900;27;20046;-75
2022/04/21 02:59:10;;;;;;;34.25;20.08;;;14.00;99.90;;;;;;5133636;27;20034;-75
2022/04/21 03:01:36;;;;;;;28.02;20.10;;;14.10;99.90;;;;;;5133088;27;20027;-75
2022/04/21 03:04:01;;;;;;;31.02;19.98;;;14.00;99.90;;;;;;5133299;27;20031;-75
2022/04/21 03:06:27;;;;;;;29.42;20.77;;;14.00;99.90;;;;;;5133445;27;20445;-75
2022/04/21 03:08:53;;;;;;;28.48;19.20;;;14.00;99.90;;;;;;5133029;27;20041;-75
2022/04/21 03:11:19;;;;;;;27.23;19.45;;;13.90;99.90;;;;;;5132741;27;20405;-74
2022/04/21 03:13:44;;;;;;;27.80;19.85;;;14.00;99.90;;;;;;5129277;27;20046;-74
2022/04/21 03:16:10;;;;;;;28.73;20.65;;;13.90;99.90;;;;;;5128967;27;20443;-74
2022/04/21 03:18:36;;;;;;;29.85;20.02;;;13.90;99.90;;;;;;5132717;27;20051;-74
2022/04/21 03:26:30;;;;;;;28.23;19.27;;;14.00;99.90;;;;;;5132689;27;20136;-74
2022/04/21 03:28:55;;;;;;;31.73;20.95;;;13.90;99.90;;;;;;5132873;27;20149;-74
2022/04/21 03:31:21;;;;;;;29.23;19.25;;;13.90;99.90;;;;;;5127813;27;20034;-74
2022/04/21 03:33:47;;;;;;;32.65;20.30;;;13.90;99.90;;;;;;5132581;27;20030;-74
2022/04/21 03:36:13;;;;;;;28.88;20.40;;;13.90;99.90;;;;;;5133062;27;20023;-75
2022/04/21 03:38:39;;;;;;;27.45;19.67;;;13.90;99.90;;;;;;5116997;27;20040;-74
2022/04/21 03:41:05;;;;;;;28.15;19.05;;;13.90;99.90;;;;;;5126728;27;20038;-74
2022/04/21 03:43:31;;;;;;;28.13;19.83;;;14.00;99.90;;;;;;5132345;27;20084;-75
2022/04/21 03:45:57;;;;;;;33.15;22.80;;;13.90;99.90;;;;;;5132461;27;20374;-74
2022/04/21 03:48:23;;;;;;;32.72;21.42;;;13.80;99.90;;;;;;5132640;27;20035;-74
2022/04/21 03:50:49;;;;;;;30.52;20.55;;;13.90;99.90;;;;;;5119636;27;20085;-75
2022/04/21 03:53:17;;;;;;;37.25;22.52;;;13.90;99.90;;;;;;5120200;27;20028;-74
2022/04/21 03:55:43;;;;;;;40.80;23.80;;;13.90;99.90;;;;;;5123403;27;20030;-74
2022/04/21 03:58:08;;;;;;;34.38;21.48;;;13.90;99.90;;;;;;5132465;27;20019;-74
2022/04/21 04:00:34;;;;;;;31.55;21.05;;;13.90;99.90;;;;;;5132348;27;20516;-74
2022/04/21 04:03:00;;;;;;;34.90;22.80;;;13.90;99.90;;;;;;5129213;27;20054;-74
2022/04/21 04:05:26;;;;;;;27.75;20.42;;;13.90;99.90;;;;;;5131524;27;20457;-74
2022/04/21 04:10:52;;;;;;;30.98;20.77;;;13.90;99.90;;;;;;5131990;27;20054;-75
2022/04/21 04:13:22;;;;;;;36.67;22.90;;;13.90;99.90;;;;;;5132252;27;20098;-74
2022/04/21 04:15:49;;;;;;;32.95;20.98;;;13.80;99.90;;;;;;5115401;27;20094;-74
2022/04/21 04:18:16;;;;;;;34.72;21.90;;;13.80;99.90;;;;;;5132364;27;20034;-75
2022/04/21 04:20:42;;;;;;;32.03;21.33;;;13.90;99.90;;;;;;5107418;28;20034;-75
2022/04/21 04:23:08;;;;;;;30.85;21.33;;;13.80;99.90;;;;;;5106171;28;20682;-75
2022/04/21 04:25:35;;;;;;;29.75;20.55;;;13.90;99.90;;;;;;5111247;28;20020;-75
2022/04/21 04:28:03;;;;;;;33.08;20.90;;;13.90;99.90;;;;;;5111715;28;20040;-75
2022/04/21 04:30:29;;;;;;;33.17;22.33;;;13.90;99.90;;;;;;5111555;28;20043;-75
2022/04/21 04:32:56;;;;;;;30.33;20.25;;;13.90;99.90;;;;;;5111653;28;20028;-74
2022/04/21 04:35:22;;;;;;;29.75;20.73;;;13.80;99.90;;;;;;5110819;28;20020;-75
2022/04/21 04:37:48;;;;;;;36.80;22.67;;;13.80;99.90;;;;;;5111543;28;20027;-74
2022/04/21 04:40:17;;;;;;;34.58;21.85;;;13.80;99.90;;;;;;5111229;28;20027;-74
2022/04/21 04:42:42;;;;;;;29.45;19.95;;;13.70;99.90;;;;;;5113229;28;20440;-75
2022/04/21 04:47:53;;;;;;;26.20;18.48;;;13.80;99.90;;;;;;5115042;28;20470;-74
2022/04/21 04:50:19;;;;;;;31.42;22.05;;;13.80;99.90;;;;;;5114628;28;20134;-74
2022/04/21 04:52:45;;;;;;;36.63;25.38;;;13.80;99.90;;;;;;5115112;28;20032;-74
2022/04/21 04:55:11;;;;;;;34.55;24.38;;;13.80;99.90;;;;;;5115177;27;20031;-74
2022/04/21 04:57:39;;;;;;;36.38;25.88;;;13.80;99.90;;;;;;5115133;27;20482;-75
2022/04/21 05:00:06;;;;;;;31.63;22.52;;;13.80;99.90;;;;;;5115799;28;20020;-74
2022/04/21 05:02:32;;;;;;;40.03;27.77;;;13.70;99.90;;;;;;5114867;28;20430;-75
2022/04/21 05:04:58;;;;;;;34.25;23.13;;;13.70;99.90;;;;;;5114604;28;20219;-75
2022/04/21 05:07:24;;;;;;;47.00;31.05;;;13.70;99.90;;;;;;5114646;28;20416;-77
2022/04/21 05:09:49;;;;;;;38.65;26.38;;;13.80;99.90;;;;;;5115329;28;20031;-75
2022/04/21 05:12:15;;;;;;;39.67;25.75;;;13.80;99.90;;;;;;5115423;28;20027;-73
2022/04/21 05:14:41;;;;;;;33.97;23.40;;;13.80;99.90;;;;;;5114475;28;20028;-74
2022/04/21 05:17:07;;;;;;;31.50;21.77;;;13.80;99.90;;;;;;5113293;28;20066;-75
2022/04/21 05:19:33;;;;;;;38.35;22.52;;;13.70;99.90;;;;;;5125030;27;20039;-75
2022/04/21 05:22:03;;;;;;;36.08;22.48;;;13.80;99.90;;;;;;5135660;27;20035;-74
2022/04/21 05:24:31;;;;;;;35.90;22.85;;;13.80;99.90;;;;;;5135202;27;20050;-74
2022/04/21 05:26:57;;;;;;;35.95;22.60;;;13.80;99.90;;;;;;5135422;27;20063;-75
2022/04/21 05:32:09;;;;;;;34.88;22.63;;;13.80;99.90;;;;;;5135121;27;20061;-75
2022/04/21 05:34:35;;;;;;;39.35;23.70;;;13.80;99.90;;;;;;5134106;27;20542;-75
2022/04/21 05:37:02;;;;;;;37.50;23.52;;;13.90;99.90;;;;;;5134778;27;20497;-77
2022/04/21 05:39:29;;;;;;;38.22;23.20;;;13.90;99.90;;;;;;5134955;27;20023;-75
2022/04/21 05:41:59;;;;;;;38.42;25.58;;;13.80;99.90;;;;;;5135050;27;20027;-75
2022/04/21 05:44:27;;;;;;;38.97;24.27;;;13.70;99.90;;;;;;5134435;27;20113;-76
2022/04/21 05:46:53;;;;;;;37.92;23.83;;;13.80;99.90;;;;;;5133842;27;20532;-73
2022/04/21 05:49:19;;;;;;;35.00;24.17;;;13.80;99.90;;;;;;5135101;27;20027;-80
2022/04/21 05:51:46;;;;;;;40.95;26.08;;;13.90;99.90;;;;;;5118258;27;20034;-75
2022/04/21 05:54:12;;;;;;;39.38;27.20;;;13.90;99.90;;;;;;5131592;27;20023;-77
2022/04/21 05:56:38;;;;;;;36.20;25.10;;;13.90;99.90;;;;;;5123488;27;20488;-76
2022/04/21 05:59:04;;;;;;;34.05;24.63;;;13.80;99.90;;;;;;5129355;27;20043;-76
2022/04/21 06:01:30;;;;;;;34.92;24.40;;;13.90;99.90;;;;;;5122420;27;20024;-76
2022/04/21 06:03:56;;;;;;;36.63;24.25;;;14.00;99.90;;;;;;5134756;27;20031;-76
2022/04/21 06:06:22;;;;;;;36.13;24.45;;;14.00;99.90;;;;;;5134059;27;20050;-74
2022/04/21 06:08:48;;;;;;;35.05;23.50;;;13.90;99.90;;;;;;5134521;27;20164;-72
2022/04/21 06:11:14;;;;;;;36.83;24.17;;;14.00;99.90;;;;;;5133059;27;20114;-71
2022/04/21 06:13:43;;;;;;;37.47;24.17;;;14.00;99.90;;;;;;5124783;27;20088;-71
2022/04/21 06:16:10;;;;;;;35.97;24.80;;;14.10;99.90;;;;;;5134092;27;20019;-71
2022/04/21 06:18:36;;;;;;;36.80;24.60;;;14.10;99.90;;;;;;5116046;27;20073;-71
2022/04/21 06:21:03;;;;;;;36.08;24.98;;;14.10;99.90;;;;;;5118239;27;20036;-71
2022/04/21 06:23:31;;;;;;;36.35;25.05;;;14.10;99.90;;;;;;5118221;27;20422;-71
2022/04/21 06:25:59;;;;;;;36.85;24.85;;;14.10;99.90;;;;;;5126841;27;20106;-71
2022/04/21 06:28:28;;;;;;;33.55;23.88;;;14.10;99.90;;;;;;5133598;27;20015;-71
2022/04/21 06:30:54;;;;;;;33.63;22.73;;;14.20;99.90;;;;;;5117359;27;20569;-71
2022/04/21 06:33:20;;;;;;;33.17;23.23;;;14.20;99.90;;;;;;5134406;27;20106;-71
2022/04/21 06:35:46;;;;;;;30.98;22.90;;;14.20;99.90;;;;;;5133942;27;20481;-71
2022/04/21 06:38:12;;;;;;;29.02;20.50;;;14.30;99.90;;;;;;5133429;27;20020;-71
2022/04/21 06:40:38;;;;;;;29.63;19.83;;;14.30;99.90;;;;;;5133533;27;20027;-71
2022/04/21 06:48:01;;;;;;;29.23;19.85;;;14.40;99.90;;;;;;5133517;27;20033;-71
2022/04/21 06:48:36;;;;;;;30.92;20.25;;;14.50;99.90;;;;;;5125735;27;20034;-71
2022/04/21 06:51:02;;;;;;;31.60;21.15;;;14.60;99.90;;;;;;5117753;27;20051;-71
2022/04/21 06:53:29;;;;;;;29.70;20.10;;;14.60;99.90;;;;;;5130743;27;20102;-70
2022/04/21 06:55:55;;;;;;;27.40;19.45;;;14.70;99.90;;;;;;5132967;27;20080;-72
2022/04/21 06:58:21;;;;;;;29.60;20.50;;;14.70;99.90;;;;;;5127878;27;20095;-72
2022/04/21 07:00:48;;;;;;;28.83;21.27;;;14.60;99.90;;;;;;5130167;27;20107;-71
2022/04/21 07:03:16;;;;;;;32.33;22.20;;;14.60;99.90;;;;;;5133263;27;20026;-71
2022/04/21 07:05:42;;;;;;;30.55;23.10;;;14.60;99.90;;;;;;5132508;27;20031;-71
2022/04/21 07:08:08;;;;;;;33.80;24.70;;;14.60;99.90;;;;;;5126355;27;20080;-71
2022/04/21 07:10:34;;;;;;;29.85;23.23;;;14.60;99.90;;;;;;5121995;27;20489;-71
2022/04/21 07:13:10;;;;;;;31.55;20.75;;;14.60;99.90;;;;;;5132603;27;20389;-71
2022/04/21 07:15:36;;;;;;;28.98;19.02;;;14.60;99.90;;;;;;5132095;27;20547;-71
2022/04/21 07:18:02;;;;;;;29.48;20.70;;;14.50;99.90;;;;;;5115539;27;20413;-71
2022/04/21 07:20:28;;;;;;;30.15;20.60;;;14.60;99.90;;;;;;5128486;27;20058;-71
2022/04/21 07:22:54;;;;;;;27.63;20.10;;;14.50;99.90;;;;;;5131495;27;20059;-72
2022/04/21 07:25:19;;;;;;;30.00;19.70;;;14.50;99.90;;;;;;5130858;27;20023;-72
2022/04/21 07:27:45;;;;;;;31.88;20.30;;;14.50;99.90;;;;;;5130882;27;20478;-72
2022/04/21 07:30:11;;;;;;;25.23;18.10;;;14.50;99.90;;;;;;5130722;27;20031;-71
2022/04/21 07:32:37;;;;;;;25.90;18.25;;;14.50;99.90;;;;;;5131485;27;20027;-71
2022/04/21 07:35:04;;;;;;;27.65;17.92;;;14.60;99.90;;;;;;5131411;27;20034;-71
2022/04/21 07:37:30;;;;;;;23.15;17.33;;;14.60;99.90;;;;;;5126417;27;20409;-71
2022/04/21 07:39:56;;;;;;;25.15;17.42;;;14.60;99.90;;;;;;5131497;27;20027;-71
2022/04/21 07:42:22;;;;;;;25.15;17.17;;;14.60;99.90;;;;;;5131351;27;20030;-71
2022/04/21 07:44:48;;;;;;;24.33;16.75;;;14.70;99.90;;;;;;5114502;27;20118;-71
2022/04/21 07:47:14;;;;;;;26.70;17.00;;;14.70;99.90;;;;;;5119519;27;20142;-73
2022/04/21 07:49:45;;;;;;;27.67;17.52;;;14.60;99.90;;;;;;5125207;27;20058;-72
2022/04/21 07:55:17;;;;;;;24.40;16.83;;;14.70;99.90;;;;;;5116862;27;20096;-72
2022/04/21 07:57:47;;;;;;;28.42;17.65;;;14.80;99.90;;;;;;5111691;27;20501;-72
2022/04/21 08:00:15;;;;;;;26.98;17.25;;;14.80;99.90;;;;;;5118757;27;20012;-72
2022/04/21 08:02:42;;;;;;;25.80;16.63;;;14.80;99.90;;;;;;5128620;27;20084;-72
2022/04/21 08:05:09;;;;;;;26.92;17.33;;;14.80;99.90;;;;;;5124900;27;20038;-72
2022/04/21 08:07:36;;;;;;;24.67;16.73;;;14.80;99.90;;;;;;5131091;27;20050;-72
2022/04/21 08:10:07;;;;;;;26.08;17.42;;;14.90;99.90;;;;;;5130736;27;20031;-72
2022/04/21 08:12:42;;;;;;;25.20;16.77;;;15.00;99.90;;;;;;5130035;27;20016;-72
2022/04/21 08:15:15;;;;;;;27.10;15.25;;;15.00;99.90;;;;;;5115115;27;20024;-73
2022/04/21 08:17:41;;;;;;;25.55;15.23;;;14.90;99.90;;;;;;5129088;27;20027;-73
2022/04/21 08:20:11;;;;;;;25.33;15.65;;;14.80;99.90;;;;;;5131183;27;20051;-73
2022/04/21 08:22:37;;;;;;;22.98;14.48;;;14.90;99.90;;;;;;5123152;27;20440;-72
2022/04/21 08:33:18;;;;;;;29.08;18.17;;;15.10;99.90;;;;;;5120524;28;20444;-72
2022/04/21 08:35:44;;;;;;;27.10;18.40;;;15.10;99.90;;;;;;5130600;27;20505;-72
2022/04/21 08:38:16;;;;;;;26.42;19.30;;;15.20;99.90;;;;;;5130377;27;20544;-72
2022/04/21 08:40:51;;;;;;;29.00;19.48;;;15.20;99.90;;;;;;5130324;28;20083;-72
2022/04/21 08:43:17;;;;;;;29.40;18.95;;;15.10;99.90;;;;;;5130187;28;20098;-72
2022/04/21 08:45:47;;;;;;;27.50;19.25;;;15.10;99.90;;;;;;5130877;27;20165;-72
2022/04/21 08:48:14;;;;;;;25.98;17.67;;;15.10;99.90;;;;;;5125408;27;20554;-72
2022/04/21 08:50:41;;;;;;;22.17;15.07;;;15.10;99.90;;;;;;5129361;28;20051;-72
2022/04/21 08:53:08;;;;;;;25.08;15.32;;;15.00;99.90;;;;;;5130599;28;20047;-72
2022/04/21 08:55:34;;;;;;;20.73;14.57;;;15.10;99.90;;;;;;5129818;28;20061;-72
2022/04/21 08:58:00;;;;;;;22.67;14.52;;;15.10;99.90;;;;;;5130212;28;20019;-72
2022/04/21 09:00:26;;;;;;;19.45;13.07;;;15.10;99.90;;;;;;5130353;27;20520;-72
2022/04/21 09:02:53;;;;;;;19.38;13.77;;;15.20;99.90;;;;;;5130975;27;20485;-71
2022/04/21 09:05:22;;;;;;;21.67;14.52;;;15.30;99.90;;;;;;5122376;28;20050;-72
2022/04/21 09:07:52;;;;;;;24.67;15.02;;;15.40;99.90;;;;;;5121921;28;20490;-72
2022/04/21 09:10:19;;;;;;;22.27;14.30;;;15.60;99.90;;;;;;5129265;28;20088;-72
2022/04/21 09:12:50;;;;;;;21.85;15.25;;;15.90;99.90;;;;;;5129941;27;20023;-73
2022/04/21 09:15:20;;;;;;;22.52;16.00;;;16.00;99.90;;;;;;5130451;27;20031;-71
2022/04/21 09:17:48;;;;;;;24.48;15.75;;;16.20;99.90;;;;;;5129869;28;20485;-71
2022/04/21 09:20:22;;;;;;;23.77;15.82;;;16.30;99.90;;;;;;5129524;28;20576;-72
2022/04/21 09:22:52;;;;;;;21.42;14.60;;;16.40;99.90;;;;;;5130389;28;20027;-71
2022/04/21 09:25:26;;;;;;;17.70;12.23;;;16.60;99.90;;;;;;5129675;28;20309;-72
2022/04/21 09:27:53;;;;;;;;;;;16.60;99.90;;;;;;5114738;27;20079;-72
2022/04/21 09:30:19;;;;;;;21.23;12.65;;;16.80;99.90;;;;;;5128252;27;19915;-72
2022/04/21 09:32:54;;;;;;;17.42;11.45;;;16.90;99.90;;;;;;5133414;27;20413;-71
2022/04/21 09:35:23;;;;;;;17.80;12.70;;;16.90;99.90;;;;;;5134010;27;20031;-71
2022/04/21 09:37:56;;;;;;;18.55;11.40;;;17.00;99.90;;;;;;5133613;27;20118;-72
2022/04/21 09:40:27;;;;;;;22.40;13.05;;;16.90;99.90;;;;;;5133378;27;20023;-72
2022/04/21 09:42:58;;;;;;;21.33;12.73;;;16.80;99.90;;;;;;5117505;27;20024;-71
2022/04/21 09:48:21;;;;;;;17.08;9.82;;;17.20;99.90;;;;;;5122753;27;20069;-71
2022/04/21 09:50:51;;;;;;;17.00;10.23;;;17.40;99.90;;;;;;5133081;27;20043;-71
2022/04/21 09:53:19;;;;;;;14.73;10.00;;;17.40;99.90;;;;;;5133167;27;20035;-72
2022/04/21 09:55:47;;;;;;;15.75;9.88;;;17.50;99.90;;;;;;5132909;27;20122;-72
2022/04/21 09:58:13;;;;;;;12.85;9.07;;;17.40;99.90;;;;;;5133428;27;20025;-71
2022/04/21 10:00:40;;;;;;;13.88;9.18;;;17.30;99.90;;;;;;5133688;27;20031;-72
2022/04/21 10:03:07;;;;;;;13.98;9.90;;;17.20;99.90;;;;;;5133906;27;20513;-72
2022/04/21 10:05:34;;;;;;;14.05;9.82;;;16.90;99.90;;;;;;5133275;27;20027;-71
2022/04/21 10:08:02;;;;;;;13.05;9.07;;;16.80;99.90;;;;;;5132754;27;20031;-71
2022/04/21 10:10:29;;;;;;;11.98;8.32;;;16.80;99.90;;;;;;5133159;27;20118;-71
2022/04/21 10:12:56;;;;;;;10.88;8.57;;;16.80;99.90;;;;;;5132735;27;20086;-71
2022/04/21 10:15:23;;;;;;;11.10;8.70;;;16.80;99.90;;;;;;5131998;27;20493;-71
2022/04/21 10:17:49;;;;;;;15.50;9.25;;;16.70;99.90;;;;;;5132773;27;20127;-71
2022/04/21 10:20:15;;;;;;;15.15;9.07;;;16.80;99.90;;;;;;5131834;27;20142;-71
2022/04/21 10:22:42;;;;;;;14.40;9.27;;;16.90;99.90;;;;;;5116687;27;20024;-72
2022/04/21 10:25:08;;;;;;;14.88;9.32;;;17.00;99.90;;;;;;5133184;27;20034;-71
2022/04/21 10:27:47;;;;;;;12.63;8.93;;;17.00;99.90;;;;;;5132827;27;20019;-75
2022/04/21 10:30:20;;;;;;;14.88;9.00;;;17.10;99.90;;;;;;5116848;27;20144;-76
2022/04/21 10:32:47;;;;;;;13.05;9.35;;;17.10;99.90;;;;;;5131873;27;20027;-77
2022/04/21 10:35:28;;;;;;;11.88;8.90;;;17.20;99.90;;;;;;5132492;27;20032;-73
2022/04/21 10:38:13;;;;;;;17.27;9.70;;;17.40;99.90;;;;;;5131800;27;20019;-73
2022/04/21 10:41:10;;;;;;;18.73;10.57;;;17.60;99.90;;;;;;5131929;27;20023;-72
2022/04/21 10:43:48;;;;;;;16.08;10.77;;;17.90;99.90;;;;;;5131952;27;20030;-71
2022/04/21 10:46:26;;;;;;;14.15;8.57;;;18.10;99.90;;;;;;5131800;27;20031;-71
2022/04/21 10:48:52;;;;;;;12.50;8.80;;;18.20;99.90;;;;;;5121781;27;20168;-72
2022/04/21 10:57:32;;;;;;;15.13;9.82;;;18.70;99.90;;;;;;5045744;28;20091;-72
2022/04/21 11:00:00;;;;;;;16.33;10.40;;;18.80;99.90;;;;;;5036707;28;20051;-72
2022/04/21 11:02:43;;;;;;;16.10;9.43;;;18.70;99.90;;;;;;5036710;28;20036;-71
2022/04/21 11:05:36;;;;;;;15.98;9.70;;;18.70;99.90;;;;;;5020283;28;20036;-71
2022/04/21 11:08:04;;;;;;;14.32;8.98;;;18.70;99.90;;;;;;5036385;28;20053;-71
2022/04/21 11:10:39;;;;;;;13.48;9.77;;;18.60;99.90;;;;;;5036612;28;20379;-71
2022/04/21 11:13:07;;;;;;;11.02;8.98;;;18.50;99.90;;;;;;5034043;28;20021;-71
2022/04/21 11:15:47;;;;;;;16.42;10.02;;;18.40;99.90;;;;;;5032872;28;20038;-71
2022/04/21 11:18:19;;;;;;;15.45;9.10;;;18.30;99.90;;;;;;5034472;28;20108;-71
2022/04/21 11:20:47;;;;;;;12.55;8.43;;;18.30;99.90;;;;;;5036957;28;20137;-71
2022/04/21 11:23:31;;;;;;;16.77;9.55;;;18.40;99.90;;;;;;5037427;28;20108;-71
2022/04/21 11:26:07;;;;;;;16.45;8.95;;;18.40;99.90;;;;;;5037361;28;20432;-75
2022/04/21 11:28:33;;;;;;;12.80;8.10;;;18.50;99.90;;;;;;5036763;28;20029;-76
2022/04/21 11:31:04;;;;;;;12.70;8.68;;;18.40;99.90;;;;;;5033707;28;20144;-75
2022/04/21 11:33:31;;;;;;;12.27;8.48;;;18.50;99.90;;;;;;5044149;27;20036;-73
2022/04/21 11:36:16;;;;;;;11.35;8.20;;;18.80;99.90;;;;;;5130861;27;20027;-73
2022/04/21 11:38:48;;;;;;;14.40;9.45;;;18.70;99.90;;;;;;5131019;27;20058;-72
2022/04/21 11:41:15;;;;;;;13.53;7.87;;;19.00;99.90;;;;;;5125149;27;20027;-72
2022/04/21 11:43:48;;;;;;;11.55;7.55;;;19.20;99.90;;;;;;5119188;27;20466;-72
2022/04/21 11:46:14;;;;;;;12.55;7.97;;;19.30;99.90;;;;;;5118301;27;20053;-73
2022/04/21 11:48:41;;;;;;;13.63;7.95;;;19.30;99.90;;;;;;5124692;27;20016;-72
2022/04/21 11:51:09;;;;;;;17.00;8.18;;;19.40;99.90;;;;;;5128569;27;20054;-72
2022/04/21 11:53:40;;;;;;;10.75;7.55;;;19.50;99.90;;;;;;5128528;27;20027;-73
2022/04/21 11:56:10;;;;;;;11.65;8.23;;;19.40;99.90;;;;;;5131141;27;20031;-73
2022/04/21 11:58:38;;;;;;;13.70;7.72;;;19.50;99.90;;;;;;5130877;27;20031;-72
2022/04/21 12:06:51;;;;;;;11.30;7.55;;;19.90;99.90;;;;;;5130901;27;20034;-72
2022/04/21 12:09:21;;;;;;;13.95;8.65;;;20.00;99.90;;;;;;5115027;27;20410;-80
2022/04/21 12:11:56;;;;;;;12.55;7.60;;;20.20;99.90;;;;;;5129986;27;20455;-71
2022/04/21 12:14:22;;;;;;;12.15;7.25;;;20.10;99.90;;;;;;5130298;27;20527;-71
2022/04/21 12:17:06;;;;;;;17.58;7.03;;;20.00;99.90;;;;;;5131476;27;20019;-71
2022/04/21 12:19:46;;;;;;;12.57;6.93;;;19.90;99.90;;;;;;5128915;27;20082;-72
2022/04/21 12:22:16;;;;;;;12.52;6.85;;;19.60;99.90;;;;;;5096475;28;20043;-71
2022/04/21 12:24:50;;;;;;;18.65;7.63;;;19.30;99.90;;;;;;5130855;27;20035;-72
2022/04/21 12:27:34;;;;;;;13.10;7.45;;;19.40;99.90;;;;;;5131410;27;20039;-72
2022/04/21 12:30:05;;;;;;;11.90;7.47;;;20.00;99.90;;;;;;5130941;28;20042;-72
2022/04/21 12:32:35;;;;;;;11.60;8.65;;;20.40;99.90;;;;;;5129947;27;20400;-73
2022/04/21 12:35:06;;;;;;;9.88;6.95;;;20.50;99.90;;;;;;5130145;27;20029;-72
2022/04/21 12:37:33;;;;;;;11.77;7.20;;;20.70;99.90;;;;;;5130192;27;20027;-72
2022/04/21 12:40:01;;;;;;;9.32;6.15;;;20.50;99.90;;;;;;5130562;27;20027;-72
2022/04/21 12:42:28;;;;;;;8.93;6.05;;;20.40;99.90;;;;;;5131106;27;20476;-74
2022/04/21 12:44:54;;;;;;;12.55;7.45;;;20.20;99.90;;;;;;5130882;27;20508;-72
2022/04/21 12:47:22;;;;;;;10.55;7.90;;;20.40;99.90;;;;;;5130280;27;20063;-72
2022/04/21 12:50:01;;;;;;;9.77;7.80;;;20.60;99.90;;;;;;5124084;27;20023;-72
2022/04/21 12:52:48;;;;;;;15.82;9.73;;;20.60;99.90;;;;;;5130372;27;20023;-73
2022/04/21 12:55:20;;;;;;;11.70;6.55;;;20.90;99.90;;;;;;5131377;27;20038;-72
2022/04/21 12:58:05;;;;;;;10.18;6.28;;;21.00;99.90;;;;;;5127793;27;20019;-72
2022/04/21 13:00:32;;;;;;;9.18;6.15;;;21.10;99.90;;;;;;5111378;28;20071;-72
2022/04/21 13:02:59;;;;;;;9.15;5.57;;;21.20;99.90;;;;;;5132412;27;20179;-72
2022/04/21 13:05:26;;;;;;;9.27;5.38;;;21.20;99.90;;;;;;5116671;27;20156;-72
2022/04/21 13:07:51;;;;;;;12.77;6.68;;;21.40;99.90;;;;;;5122971;27;20121;-72
2022/04/21 13:10:21;;;;;;;9.02;6.13;;;21.60;99.90;;;;;;5129324;27;20015;-72
2022/04/21 13:12:47;;;;;;;7.53;5.18;;;21.60;99.90;;;;;;5114112;27;20110;-73
2022/04/21 13:15:13;;;;;;;8.43;5.10;;;21.60;99.90;;;;;;5130899;27;20040;-73
2022/04/21 13:17:40;;;;;;;10.13;5.50;;;21.70;99.90;;;;;;5129638;27;20023;-73
2022/04/21 13:20:09;;;;;;;8.07;4.90;;;21.80;99.90;;;;;;5129284;27;20062;-72
2022/04/21 13:22:35;;;;;;;9.32;4.45;;;21.50;99.90;;;;;;5125931;27;20106;-72
2022/04/21 13:25:01;;;;;;;7.97;4.28;;;21.00;99.90;;;;;;5121420;27;20503;-71
2022/04/21 13:27:29;;;;;;;7.97;4.03;;;21.00;99.90;;;;;;5133117;27;20027;-72
2022/04/21 13:29:55;;;;;;;7.82;3.63;;;21.00;99.90;;;;;;5133432;27;20099;-72
2022/04/21 13:35:05;;;;;;;6.68;3.90;;;21.10;99.90;;;;;;5130461;27;20409;-72